Time;durP1;ratioP1;P1;durP2;ratioP2;P2;SDS_P1;SDS_P2;PMS_P1;PMS_P2;Temp;Humidity;BMP_temperature;BMP_pressure;BME280_temperature;BME280_humidity;BME280_pressure;Samples;Min_cycle;Max_cycle;Signal;HPM_P1;HPM_P2
2021/08/07 00:00:37;;;;;;;3.33;2.70;;;;;;;19.22;80.23;99808.19;5030031;28;20037;-65
2021/08/07 00:03:02;;;;;;;3.10;2.67;;;;;;;19.22;80.89;99807.34;5030286;28;20040;-65
2021/08/07 00:05:28;;;;;;;3.80;2.55;;;;;;;19.22;80.75;99810.91;5030205;28;20029;-66
2021/08/07 00:07:53;;;;;;;4.13;2.63;;;;;;;19.15;80.10;99796.44;5028941;28;20143;-65
2021/08/07 00:10:18;;;;;;;3.80;2.50;;;;;;;19.17;79.48;99812.53;5030364;28;20033;-62
2021/08/07 00:12:44;;;;;;;6.45;2.42;;;;;;;19.08;79.13;99800.16;5029799;28;20075;-62
2021/08/07 00:15:09;;;;;;;4.30;2.60;;;;;;;19.08;79.39;99806.44;5030026;28;20033;-63
2021/08/07 00:17:35;;;;;;;3.22;2.92;;;;;;;19.06;80.43;99804.97;5029263;28;20067;-62
2021/08/07 00:20:02;;;;;;;2.88;2.35;;;;;;;19.00;80.46;99817.50;5028679;28;20032;-63
2021/08/07 00:22:28;;;;;;;4.50;2.88;;;;;;;18.98;80.27;99822.28;5029947;28;20037;-63
2021/08/07 00:24:53;;;;;;;4.63;2.63;;;;;;;18.95;80.20;99825.41;5029253;28;20075;-65
2021/08/07 00:27:19;;;;;;;4.38;2.75;;;;;;;18.89;80.61;99819.94;5029826;28;20035;-65
2021/08/07 00:29:44;;;;;;;5.25;3.67;;;;;;;18.90;80.80;99821.59;5029361;28;20120;-65
2021/08/07 00:32:10;;;;;;;7.43;4.00;;;;;;;18.85;80.93;99822.22;5028237;28;20040;-65
2021/08/07 00:34:35;;;;;;;6.65;4.20;;;;;;;18.76;80.95;99804.38;5029325;28;20068;-65
2021/08/07 00:37:04;;;;;;;6.57;4.00;;;;;;;18.83;81.16;99818.84;5029049;28;20068;-65
2021/08/07 00:39:30;;;;;;;4.68;3.70;;;;;;;18.82;81.54;99819.88;5028667;28;20435;-65
2021/08/07 00:41:55;;;;;;;5.13;3.67;;;;;;;18.80;81.54;99821.94;5026732;28;20056;-65
2021/08/07 00:44:21;;;;;;;7.65;4.32;;;;;;;18.77;81.42;99821.53;5028695;28;20025;-65
2021/08/07 00:46:46;;;;;;;6.28;4.57;;;;;;;18.78;81.41;99818.63;5028200;28;20343;-65
2021/08/07 00:49:12;;;;;;;8.20;4.18;;;;;;;18.74;81.73;99822.78;5029053;28;20582;-65
2021/08/07 00:51:38;;;;;;;9.02;4.40;;;;;;;18.76;81.30;99825.28;5028722;28;20056;-65
2021/08/07 00:54:03;;;;;;;6.95;4.03;;;;;;;18.74;81.55;99833.66;5029031;28;20037;-65
2021/08/07 00:56:29;;;;;;;4.93;3.55;;;;;;;18.72;81.17;99832.13;5028706;28;20026;-65
2021/08/07 00:58:54;;;;;;;7.28;4.07;;;;;;;18.70;81.39;99843.19;5028710;28;20029;-65
2021/08/07 01:01:20;;;;;;;4.35;3.88;;;;;;;18.67;81.57;99845.50;5029305;28;20068;-65
2021/08/07 01:03:48;;;;;;;7.28;3.95;;;;;;;18.66;82.17;99839.22;5028600;28;20033;-65
2021/08/07 01:06:33;;;;;;;5.50;4.03;;;;;;;18.68;82.53;99850.72;5029117;28;20034;-65
2021/08/07 01:09:20;;;;;;;7.13;5.28;;;;;;;18.65;83.09;99842.97;5028030;28;20067;-65
2021/08/07 01:12:09;;;;;;;9.85;6.05;;;;;;;18.67;83.50;99842.78;5027303;28;20499;-66
2021/08/07 01:14:38;;;;;;;12.57;7.55;;;;;;;18.66;84.06;99849.22;5027885;28;20038;-65
2021/08/07 01:17:06;;;;;;;12.73;6.60;;;;;;;18.64;84.08;99849.41;5028948;28;20100;-65
2021/08/07 01:19:53;;;;;;;7.55;5.50;;;;;;;18.67;84.37;99853.66;5028047;28;20053;-65
2021/08/07 01:22:20;;;;;;;8.32;5.70;;;;;;;18.67;84.53;99849.03;5028777;28;20026;-63
2021/08/07 01:24:55;;;;;;;9.27;5.95;;;;;;;18.66;84.25;99849.22;5028309;28;20143;-63
2021/08/07 01:27:23;;;;;;;8.30;5.38;;;;;;;18.71;84.47;99855.78;5028991;28;20098;-62
2021/08/07 01:29:51;;;;;;;7.38;5.07;;;;;;;18.72;84.41;99854.72;5029967;28;20112;-62
2021/08/07 01:32:17;;;;;;;8.82;5.57;;;;;;;18.72;84.67;99852.00;5032779;28;20395;-63
2021/08/07 01:34:43;;;;;;;9.45;5.35;;;;;;;18.73;84.71;99847.41;5031135;28;20021;-62
2021/08/07 01:37:08;;;;;;;8.43;5.72;;;;;;;18.72;84.88;99849.28;5031552;28;20091;-63
2021/08/07 01:39:34;;;;;;;8.85;5.20;;;;;;;18.74;84.66;99854.53;5032542;28;20467;-63
2021/08/07 01:41:59;;;;;;;11.65;6.15;;;;;;;18.69;84.99;99851.53;5030870;28;20399;-62
2021/08/07 01:44:25;;;;;;;8.38;5.93;;;;;;;18.72;84.95;99862.88;5032567;28;20105;-62
2021/08/07 01:47:09;;;;;;;7.47;5.60;;;;;;;18.73;85.09;99853.69;5032539;28;20131;-62
2021/08/07 01:49:45;;;;;;;9.57;6.15;;;;;;;18.72;85.15;99852.00;5032386;28;20025;-64
2021/08/07 01:52:24;;;;;;;8.65;5.55;;;;;;;18.72;85.33;99857.44;5032331;28;20072;-65
2021/08/07 01:54:55;;;;;;;9.43;4.75;;;;;;;18.69;84.98;99849.69;5031893;28;20026;-65
2021/08/07 01:57:24;;;;;;;7.68;5.63;;;;;;;18.73;84.97;99863.72;5031368;28;20812;-65
2021/08/07 01:59:51;;;;;;;6.18;5.20;;;;;;;18.66;85.13;99850.06;5032053;28;20033;-65
2021/08/07 02:02:17;;;;;;;9.25;6.28;;;;;;;18.69;85.19;99863.25;5032131;28;20442;-65
2021/08/07 02:04:43;;;;;;;9.63;6.13;;;;;;;18.67;85.41;99865.31;5031146;28;20021;-65
2021/08/07 02:07:10;;;;;;;11.60;6.68;;;;;;;18.67;85.30;99859.91;5031263;28;20021;-65
2021/08/07 02:09:37;;;;;;;8.70;5.90;;;;;;;18.66;84.98;99860.94;5031819;28;20069;-65
2021/08/07 02:12:03;;;;;;;8.88;6.82;;;;;;;18.66;85.23;99866.38;5030629;28;20032;-65
2021/08/07 02:14:30;;;;;;;10.98;6.05;;;;;;;18.60;84.97;99853.56;5032028;28;20041;-65
2021/08/07 02:16:56;;;;;;;12.50;6.63;;;;;;;18.64;85.30;99868.44;5032439;28;20155;-65
2021/08/07 02:19:23;;;;;;;10.07;6.40;;;;;;;18.62;85.66;99862.38;5032191;28;20128;-65
2021/08/07 02:21:49;;;;;;;11.25;7.13;;;;;;;18.60;85.56;99861.72;5031472;28;20028;-65
2021/08/07 02:24:14;;;;;;;11.45;6.72;;;;;;;18.61;85.35;99860.72;5032109;28;20017;-65
2021/08/07 02:26:43;;;;;;;8.85;6.15;;;;;;;18.59;85.46;99865.50;5029647;28;20498;-64
2021/08/07 02:29:09;;;;;;;9.18;6.22;;;;;;;18.56;85.35;99859.59;5031782;28;20032;-65
2021/08/07 02:31:35;;;;;;;7.07;5.88;;;;;;;18.54;85.41;99862.50;5030366;28;20033;-65
2021/08/07 02:34:01;;;;;;;10.88;5.80;;;;;;;18.56;85.46;99868.59;5031145;28;20037;-65
2021/08/07 02:36:29;;;;;;;7.90;5.53;;;;;;;18.53;85.52;99869.00;5031855;28;20028;-65
2021/08/07 02:38:55;;;;;;;9.00;5.57;;;;;;;18.54;85.45;99858.97;5031605;28;20025;-65
2021/08/07 02:41:22;;;;;;;10.55;5.32;;;;;;;18.53;85.54;99871.69;5030508;28;20060;-65
2021/08/07 02:43:47;;;;;;;8.63;5.68;;;;;;;18.52;85.58;99872.75;5029961;28;20048;-65
2021/08/07 02:46:14;;;;;;;7.53;5.45;;;;;;;18.43;85.41;99854.91;5031280;28;20029;-65
2021/08/07 02:48:40;;;;;;;7.93;5.68;;;;;;;18.50;85.37;99866.66;5031067;28;20026;-65
2021/08/07 02:51:05;;;;;;;8.10;5.28;;;;;;;18.48;85.62;99871.47;5031168;28;20100;-62
2021/08/07 02:53:32;;;;;;;12.15;6.00;;;;;;;18.45;86.35;99868.28;5030135;28;20562;-62
2021/08/07 02:55:58;;;;;;;9.68;5.45;;;;;;;18.43;86.59;99873.06;5031225;28;20052;-62
2021/08/07 02:58:24;;;;;;;7.88;5.57;;;;;;;18.40;86.48;99868.88;5031512;28;20029;-62
2021/08/07 03:00:50;;;;;;;13.18;5.93;;;;;;;18.39;85.99;99871.78;5030868;28;20029;-62
2021/08/07 03:03:15;;;;;;;6.97;5.35;;;;;;;18.35;86.15;99874.03;5029901;28;20029;-62
2021/08/07 03:05:42;;;;;;;12.43;6.25;;;;;;;18.33;85.74;99873.38;5030619;28;20550;-62
2021/08/07 03:08:08;;;;;;;7.90;5.18;;;;;;;18.31;85.93;99877.34;5030774;28;20507;-64
2021/08/07 03:10:34;;;;;;;7.60;5.53;;;;;;;18.26;86.25;99874.34;5030898;28;20116;-65
2021/08/07 03:12:59;;;;;;;8.05;5.03;;;;;;;18.26;85.76;99877.06;5030798;28;20029;-65
2021/08/07 03:15:25;;;;;;;8.93;5.40;;;;;;;18.25;85.91;99878.94;5031159;28;20509;-65
2021/08/07 03:17:52;;;;;;;7.18;5.10;;;;;;;18.19;86.14;99868.88;5030515;28;20017;-64
2021/08/07 03:20:18;;;;;;;9.50;5.15;;;;;;;18.20;85.81;99877.84;5030670;28;20028;-64
2021/08/07 03:22:44;;;;;;;10.93;5.70;;;;;;;18.13;85.43;99877.78;5030795;28;20063;-64
2021/08/07 03:25:10;;;;;;;11.43;5.15;;;;;;;18.12;84.85;99876.09;5030817;28;20448;-65
2021/08/07 03:27:36;;;;;;;7.68;5.05;;;;;;;18.10;84.90;99884.41;5030746;28;20372;-65
2021/08/07 03:30:03;;;;;;;8.63;5.13;;;;;;;18.08;85.04;99891.06;5030455;28;20095;-64
2021/08/07 03:32:28;;;;;;;10.35;5.43;;;;;;;18.03;84.99;99893.56;5029947;28;20025;-65
2021/08/07 03:34:54;;;;;;;11.10;5.53;;;;;;;17.97;85.08;99897.03;5030820;28;20029;-64
2021/08/07 03:37:19;;;;;;;8.63;6.28;;;;;;;17.94;85.59;99894.69;5029445;28;20301;-65
2021/08/07 03:39:45;;;;;;;9.00;6.15;;;;;;;17.92;86.34;99888.59;5030283;28;20075;-65
2021/08/07 03:42:11;;;;;;;9.35;6.30;;;;;;;17.90;86.93;99891.50;5030498;28;20075;-64
2021/08/07 03:44:36;;;;;;;8.98;6.90;;;;;;;17.86;86.92;99892.94;5029233;28;20364;-64
2021/08/07 03:47:02;;;;;;;11.13;7.53;;;;;;;17.84;86.82;99900.41;5030280;28;20044;-65
2021/08/07 03:49:27;;;;;;;8.13;6.30;;;;;;;17.84;86.89;99907.72;5030899;28;20030;-64
2021/08/07 03:51:52;;;;;;;11.65;6.47;;;;;;;17.84;86.95;99910.44;5029395;28;20068;-65
2021/08/07 03:54:18;;;;;;;10.98;7.20;;;;;;;17.81;87.36;99908.13;5030407;28;20104;-65
2021/08/07 03:56:43;;;;;;;8.85;5.97;;;;;;;17.81;88.16;99911.69;5029978;28;20039;-64
2021/08/07 03:59:09;;;;;;;7.97;5.13;;;;;;;17.81;88.90;99910.81;5029574;28;20021;-65
2021/08/07 04:01:35;;;;;;;7.00;5.30;;;;;;;17.84;89.23;99915.88;5030270;28;20025;-64
2021/08/07 04:04:00;;;;;;;6.32;4.43;;;;;;;17.84;90.29;99913.97;5028927;28;20120;-65
2021/08/07 04:06:25;;;;;;;5.15;4.03;;;;;;;17.87;91.40;99912.78;5030533;28;20029;-64
2021/08/07 04:08:51;;;;;;;5.53;4.07;;;;;;;17.90;91.94;99923.25;5029600;28;20523;-64
2021/08/07 04:11:16;;;;;;;6.15;3.63;;;;;;;17.96;92.05;99922.50;5029932;28;20029;-64
2021/08/07 04:13:42;;;;;;;6.22;3.65;;;;;;;18.02;92.33;99921.69;5029789;28;20395;-64
2021/08/07 04:16:08;;;;;;;5.40;3.70;;;;;;;18.09;92.17;99926.16;5029841;28;20399;-62
2021/08/07 04:18:33;;;;;;;5.32;3.22;;;;;;;18.15;92.13;99919.13;5029741;28;20604;-62
2021/08/07 04:20:59;;;;;;;3.53;3.17;;;;;;;18.21;92.34;99922.97;5030025;28;20383;-62
2021/08/07 04:23:24;;;;;;;5.45;3.22;;;;;;;18.25;92.33;99919.66;5029879;28;20379;-62
2021/08/07 04:25:49;;;;;;;4.05;3.10;;;;;;;18.35;92.38;99922.06;5028265;28;20506;-62
2021/08/07 04:28:15;;;;;;;6.15;2.80;;;;;;;18.46;92.26;99916.13;5029632;28;20018;-62
2021/08/07 04:30:40;;;;;;;4.65;3.50;;;;;;;18.59;92.45;99916.25;5029396;28;20083;-62
2021/08/07 04:33:08;;;;;;;8.07;2.92;;;;;;;18.70;92.23;99897.53;5027768;28;20100;-62
2021/08/07 04:35:33;;;;;;;6.60;3.47;;;;;;;18.88;91.65;99900.63;5029621;28;20035;-62
2021/08/07 04:37:59;;;;;;;6.05;3.83;;;;;;;19.00;90.79;99898.19;5028441;28;20017;-62
2021/08/07 04:40:26;;;;;;;7.47;3.58;;;;;;;19.20;90.08;99899.16;5029520;28;20022;-62
2021/08/07 04:42:52;;;;;;;5.20;3.72;;;;;;;19.38;89.07;99900.34;5027879;28;20113;-62
2021/08/07 04:45:18;;;;;;;4.72;3.63;;;;;;;19.55;88.01;99900.84;5029425;28;20113;-65
2021/08/07 04:48:01;;;;;;;6.07;3.75;;;;;;;19.74;86.68;99895.47;5029265;28;20032;-65
2021/08/07 04:50:29;;;;;;;10.90;3.95;;;;;;;19.94;85.35;99899.13;5028157;28;20041;-65
2021/08/07 04:52:55;;;;;;;6.03;3.20;;;;;;;20.13;83.46;99894.81;5029073;28;20036;-65
2021/08/07 04:55:21;;;;;;;4.07;3.67;;;;;;;20.32;81.83;99887.72;5029285;28;20109;-65
2021/08/07 04:57:47;;;;;;;4.38;3.33;;;;;;;20.55;79.58;99894.44;5028968;28;20057;-65
2021/08/07 05:00:13;;;;;;;6.45;3.50;;;;;;;20.74;78.23;99888.16;5029092;28;20029;-65
2021/08/07 05:02:38;;;;;;;4.93;3.47;;;;;;;20.99;76.93;99891.13;5029279;28;20039;-65
2021/08/07 05:05:05;;;;;;;4.43;2.92;;;;;;;21.21;76.15;99896.09;5028854;28;20029;-65
2021/08/07 05:07:31;;;;;;;4.72;3.40;;;;;;;21.42;74.28;99892.28;5029039;28;20052;-63
2021/08/07 05:09:58;;;;;;;6.55;3.22;;;;;;;21.61;73.41;99894.09;5028828;28;20025;-63
2021/08/07 05:12:26;;;;;;;2.78;2.20;;;;;;;21.76;72.89;99898.25;5029177;28;20644;-63
2021/08/07 05:14:52;;;;;;;4.55;3.13;;;;;;;21.90;72.14;99897.13;5027458;28;20053;-63
2021/08/07 05:17:17;;;;;;;4.53;2.78;;;;;;;22.06;71.36;99906.75;5027909;28;20412;-63
2021/08/07 05:19:43;;;;;;;4.32;3.35;;;;;;;22.25;70.08;99914.00;5028874;28;20341;-63
2021/08/07 05:22:08;;;;;;;3.95;2.33;;;;;;;22.40;69.15;99914.50;5027757;28;20021;-62
2021/08/07 05:24:34;;;;;;;5.38;2.72;;;;;;;22.55;68.75;99916.94;5029198;28;20033;-63
2021/08/07 05:26:59;;;;;;;3.88;2.80;;;;;;;22.71;67.93;99913.69;5028812;28;20025;-63
2021/08/07 05:29:24;;;;;;;4.72;2.75;;;;;;;22.86;67.29;99915.00;5028835;28;20430;-63
2021/08/07 05:31:50;;;;;;;4.18;2.40;;;;;;;23.00;66.60;99913.84;5028789;28;20479;-63
2021/08/07 05:34:15;;;;;;;3.75;2.40;;;;;;;23.16;65.72;99905.06;5028902;28;20428;-63
2021/08/07 05:36:41;;;;;;;2.83;2.63;;;;;;;23.29;64.90;99904.97;5028917;28;20021;-66
2021/08/07 05:39:06;;;;;;;3.22;2.72;;;;;;;23.43;64.31;99911.97;5028283;28;20022;-66
2021/08/07 05:41:31;;;;;;;5.78;2.70;;;;;;;23.52;63.79;99913.34;5029048;28;20025;-66
2021/08/07 05:43:57;;;;;;;3.88;2.90;;;;;;;23.69;63.57;99917.16;5028525;28;20026;-66
2021/08/07 05:46:22;;;;;;;4.60;2.97;;;;;;;23.81;63.08;99912.56;5028815;28;20032;-66
2021/08/07 05:48:53;;;;;;;4.28;2.88;;;;;;;23.96;62.68;99907.53;5028586;28;20033;-66
2021/08/07 05:51:19;;;;;;;4.85;2.78;;;;;;;24.05;62.21;99897.94;5028812;28;20517;-66
2021/08/07 05:53:44;;;;;;;4.97;3.08;;;;;;;24.26;61.71;99908.41;5028553;28;20140;-66
2021/08/07 05:56:10;;;;;;;4.32;2.92;;;;;;;24.42;61.00;99907.75;5028857;28;20087;-66
2021/08/07 05:58:37;;;;;;;4.82;2.75;;;;;;;24.53;60.84;99905.28;5028772;28;20025;-66
2021/08/07 06:01:06;;;;;;;3.97;2.92;;;;;;;24.72;60.31;99917.84;5028525;28;20442;-66
2021/08/07 06:03:33;;;;;;;3.38;2.63;;;;;;;24.85;60.38;99921.22;5027055;28;20467;-66
2021/08/07 06:05:58;;;;;;;3.22;2.47;;;;;;;24.96;59.77;99914.94;5027760;28;20492;-66
2021/08/07 06:08:24;;;;;;;2.97;2.42;;;;;;;25.13;59.11;99917.78;5027603;28;20053;-66
2021/08/07 06:10:49;;;;;;;5.63;2.60;;;;;;;25.26;58.30;99918.41;5028274;28;20025;-66
2021/08/07 06:13:15;;;;;;;3.83;2.25;;;;;;;25.38;57.58;99919.28;5027975;28;20053;-65
2021/08/07 06:15:40;;;;;;;2.03;1.80;;;;;;;25.58;56.87;99921.63;5029167;28;20057;-65
2021/08/07 06:18:06;;;;;;;3.05;2.10;;;;;;;25.73;56.14;99927.47;5031456;28;20398;-66
2021/08/07 06:20:32;;;;;;;4.20;1.58;;;;;;;25.89;55.26;99932.19;5031379;28;20113;-66
2021/08/07 06:22:57;;;;;;;5.30;2.30;;;;;;;26.01;54.53;99924.78;5031096;28;20029;-66
2021/08/07 06:25:23;;;;;;;2.22;1.95;;;;;;;26.16;54.68;99925.09;5031744;28;20037;-66
2021/08/07 06:27:54;;;;;;;2.05;1.63;;;;;;;26.30;54.20;99926.44;5031389;28;20116;-65
2021/08/07 06:30:21;;;;;;;2.75;1.50;;;;;;;26.42;53.44;99916.25;5031636;28;20036;-65
2021/08/07 06:32:47;;;;;;;2.15;1.67;;;;;;;26.58;52.88;99912.69;5030855;28;20490;-65
2021/08/07 06:35:12;;;;;;;2.03;1.83;;;;;;;26.75;53.08;99920.97;5029871;28;20032;-65
2021/08/07 06:37:38;;;;;;;4.65;1.92;;;;;;;26.89;52.42;99914.91;5031958;28;20034;-62
2021/08/07 06:40:04;;;;;;;5.20;2.17;;;;;;;27.01;51.79;99912.09;5031481;28;20037;-65
2021/08/07 06:42:29;;;;;;;2.17;1.65;;;;;;;27.19;51.59;99914.56;5031460;28;20385;-66
2021/08/07 06:44:54;;;;;;;3.95;1.73;;;;;;;27.34;50.98;99915.66;5015619;28;20030;-66
2021/08/07 06:47:20;;;;;;;2.35;1.83;;;;;;;27.44;50.71;99906.72;5008992;28;20034;-66
2021/08/07 06:49:45;;;;;;;1.90;1.67;;;;;;;27.55;50.56;99909.34;5010005;28;20100;-66
2021/08/07 06:52:11;;;;;;;4.00;1.60;;;;;;;27.68;50.43;99910.91;5011074;28;20040;-66
2021/08/07 06:54:36;;;;;;;3.28;1.60;;;;;;;27.81;49.87;99916.88;5010221;28;20062;-66
2021/08/07 06:57:03;;;;;;;3.45;1.88;;;;;;;27.95;49.15;99914.63;5011180;28;20037;-67
2021/08/07 06:59:28;;;;;;;1.50;1.40;;;;;;;28.09;48.88;99911.16;5011988;28;20104;-66
2021/08/07 07:01:54;;;;;;;2.30;1.60;;;;;;;28.22;48.58;99910.81;5010424;28;20502;-66
2021/08/07 07:04:19;;;;;;;2.08;1.67;;;;;;;28.35;48.10;99910.41;5012240;28;20114;-66
2021/08/07 07:06:45;;;;;;;4.22;1.67;;;;;;;28.46;48.58;99916.84;5011977;28;20456;-66
2021/08/07 07:09:10;;;;;;;1.70;1.35;;;;;;;28.58;48.28;99912.03;5011838;28;20046;-67
2021/08/07 07:11:37;;;;;;;2.13;1.52;;;;;;;28.70;48.41;99906.34;5012105;28;20057;-67
2021/08/07 07:14:03;;;;;;;3.58;1.63;;;;;;;28.80;48.50;99904.50;5012101;28;20026;-67
2021/08/07 07:16:30;;;;;;;3.05;1.63;;;;;;;28.90;47.35;99898.22;5012129;28;20151;-67
2021/08/07 07:18:56;;;;;;;4.28;1.58;;;;;;;29.06;47.85;99913.84;5011645;28;20438;-66
2021/08/07 07:21:21;;;;;;;1.70;1.60;;;;;;;29.16;47.63;99900.13;5026770;28;20145;-66
2021/08/07 07:23:47;;;;;;;1.88;1.48;;;;;;;29.31;47.09;99903.00;5011541;28;20388;-66
2021/08/07 07:26:12;;;;;;;1.80;1.48;;;;;;;29.44;47.03;99897.81;5010240;28;20030;-66
2021/08/07 07:28:38;;;;;;;6.70;1.55;;;;;;;29.59;44.73;99900.66;5011962;28;20026;-66
2021/08/07 07:31:03;;;;;;;1.98;1.40;;;;;;;29.67;44.83;99902.13;5011478;28;20045;-67
2021/08/07 07:33:28;;;;;;;3.22;1.45;;;;;;;29.79;44.23;99905.50;5011548;28;20072;-67
2021/08/07 07:35:54;;;;;;;1.55;1.40;;;;;;;29.92;43.81;99907.78;5009783;28;20030;-66
2021/08/07 07:38:20;;;;;;;1.30;1.20;;;;;;;30.00;43.67;99904.47;5011703;28;20068;-67
2021/08/07 07:40:45;;;;;;;3.55;1.60;;;;;;;30.15;43.39;99904.56;5010444;28;20045;-67
2021/08/07 07:43:11;;;;;;;1.45;1.20;;;;;;;30.26;42.85;99906.25;5010900;28;20025;-67
2021/08/07 07:45:36;;;;;;;1.85;1.33;;;;;;;30.39;41.63;99905.75;5010918;28;20026;-67
2021/08/07 07:48:02;;;;;;;1.40;1.30;;;;;;;30.52;41.33;99910.75;5010517;28;20032;-67
2021/08/07 07:50:27;;;;;;;3.92;1.25;;;;;;;30.58;42.28;99901.34;5010620;28;20049;-66
2021/08/07 07:52:52;;;;;;;2.28;1.20;;;;;;;30.66;41.27;99903.56;5010193;28;20029;-67
2021/08/07 07:55:18;;;;;;;2.60;1.17;;;;;;;30.77;40.09;99908.06;5009041;28;20034;-67
2021/08/07 07:57:43;;;;;;;1.60;1.10;;;;;;;30.86;39.79;99908.31;5009934;28;20593;-67
2021/08/07 08:00:09;;;;;;;8.77;1.50;;;;;;;30.95;39.05;99896.41;5010833;28;20036;-67
2021/08/07 08:02:35;;;;;;;8.02;1.25;;;;;;;31.07;38.80;99896.97;5010426;28;20133;-68
2021/08/07 08:05:00;;;;;;;2.03;1.20;;;;;;;31.13;39.09;99904.16;5010258;28;21140;-68
2021/08/07 08:07:26;;;;;;;1.80;1.42;;;;;;;31.23;39.02;99912.47;5010180;28;20092;-68
2021/08/07 08:09:51;;;;;;;1.27;1.05;;;;;;;31.32;39.09;99910.81;5009671;28;20034;-68
2021/08/07 08:12:17;;;;;;;2.95;1.25;;;;;;;31.38;38.29;99915.25;5010105;28;20036;-68
2021/08/07 08:14:42;;;;;;;2.45;1.17;;;;;;;31.43;37.65;99918.00;5010234;28;20022;-68
2021/08/07 08:17:08;;;;;;;3.60;1.20;;;;;;;31.49;38.41;99921.59;5010379;28;20021;-68
2021/08/07 08:19:33;;;;;;;2.80;1.33;;;;;;;31.57;37.92;99915.50;5009894;28;20022;-68
2021/08/07 08:21:59;;;;;;;2.35;1.20;;;;;;;31.60;37.30;99915.75;5009545;28;20037;-68
2021/08/07 08:24:25;;;;;;;1.20;1.08;;;;;;;31.69;37.70;99914.06;5009781;28;20022;-68
2021/08/07 08:26:50;;;;;;;1.10;0.90;;;;;;;31.76;37.26;99911.81;5009628;28;20379;-68
2021/08/07 08:29:16;;;;;;;1.75;1.05;;;;;;;31.87;37.01;99926.50;5009924;28;20049;-67
2021/08/07 08:31:41;;;;;;;1.20;1.10;;;;;;;31.93;36.20;99929.00;5010448;28;20034;-67
2021/08/07 08:34:06;;;;;;;2.85;1.20;;;;;;;32.00;36.02;99923.13;5009700;28;20105;-67
2021/08/07 08:36:32;;;;;;;2.78;1.10;;;;;;;32.05;36.74;99926.72;5009894;28;20218;-67
2021/08/07 08:38:58;;;;;;;1.58;1.17;;;;;;;32.15;36.16;99934.19;5009017;28;20034;-67
2021/08/07 08:41:23;;;;;;;1.85;1.30;;;;;;;32.21;35.80;99916.38;5009662;28;20057;-67
2021/08/07 08:43:51;;;;;;;1.25;1.13;;;;;;;32.29;35.47;99915.78;5009611;28;20044;-66
2021/08/07 08:46:18;;;;;;;6.72;1.52;;;;;;;32.31;35.98;99917.13;5024821;28;20029;-66
2021/08/07 08:48:45;;;;;;;2.50;1.20;;;;;;;32.36;35.25;99922.72;5009404;28;20022;-67
2021/08/07 08:51:12;;;;;;;2.25;0.95;;;;;;;32.38;34.42;99927.97;5008601;28;20501;-67
2021/08/07 08:53:39;;;;;;;1.98;1.10;;;;;;;32.38;34.01;99920.50;5009897;28;20492;-68
2021/08/07 08:56:04;;;;;;;1.20;1.10;;;;;;;32.40;34.46;99926.56;5009284;28;20108;-68
2021/08/07 08:58:33;;;;;;;1.38;1.00;;;;;;;32.38;34.58;99920.50;5008212;28;20125;-68
2021/08/07 09:00:58;;;;;;;1.75;1.00;;;;;;;32.40;34.75;99934.91;5008627;28;20024;-67
2021/08/07 09:03:24;;;;;;;4.22;1.20;;;;;;;32.46;34.44;99935.69;5009738;28;20120;-67
2021/08/07 09:05:49;;;;;;;5.68;1.35;;;;;;;32.51;33.85;99935.69;5008953;28;20026;-67
2021/08/07 09:08:16;;;;;;;3.92;1.40;;;;;;;32.53;34.15;99933.47;5009047;28;20045;-67
2021/08/07 09:10:41;;;;;;;1.10;1.00;;;;;;;32.55;33.71;99926.50;5009418;28;20024;-67
2021/08/07 09:13:18;;;;;;;1.33;0.90;;;;;;;32.58;33.59;99925.91;5024209;28;20467;-67
2021/08/07 09:15:44;;;;;;;2.97;1.00;;;;;;;32.58;33.78;99927.84;5009388;28;20472;-67
2021/08/07 09:18:10;;;;;;;1.38;1.17;;;;;;;32.60;33.65;99926.44;5009454;28;20371;-67
2021/08/07 09:20:36;;;;;;;3.70;1.42;;;;;;;32.57;33.78;99927.00;5009068;28;20029;-68
2021/08/07 09:23:02;;;;;;;1.70;0.98;;;;;;;32.59;33.66;99929.50;5009079;28;20018;-67
2021/08/07 09:25:34;;;;;;;3.42;1.08;;;;;;;32.57;33.38;99920.66;5009125;28;20022;-68
2021/08/07 09:28:00;;;;;;;1.23;1.13;;;;;;;32.55;33.06;99926.50;5008862;28;20026;-68
2021/08/07 09:30:29;;;;;;;1.83;1.17;;;;;;;32.55;33.40;99937.59;5007872;28;20131;-68
2021/08/07 09:33:25;;;;;;;2.75;1.10;;;;;;;32.50;32.95;99932.06;5008738;28;20041;-68
2021/08/07 09:35:51;;;;;;;2.67;1.25;;;;;;;32.49;33.25;99926.78;5008744;28;20442;-67
2021/08/07 09:38:19;;;;;;;1.55;0.90;;;;;;;32.49;33.24;99922.06;5009385;28;20018;-64
2021/08/07 09:41:00;;;;;;;2.58;1.02;;;;;;;32.51;33.40;99925.41;5024225;28;20113;-64
2021/08/07 09:43:50;;;;;;;1.75;1.20;;;;;;;32.47;32.60;99917.94;5009048;28;20090;-64
2021/08/07 09:46:20;;;;;;;4.10;1.05;;;;;;;32.40;32.71;99915.47;5000330;28;20038;-64
2021/08/07 09:48:51;;;;;;;1.35;1.00;;;;;;;32.44;32.28;99927.66;5009160;28;20022;-64
2021/08/07 09:51:20;;;;;;;1.35;1.17;;;;;;;32.41;32.34;99914.34;5011613;28;20025;-64
2021/08/07 09:54:04;;;;;;;1.40;1.20;;;;;;;32.43;32.79;99923.22;5012742;28;20037;-64
2021/08/07 09:56:49;;;;;;;;;;;;;;;32.42;32.59;99924.34;5013039;28;20026;-64
2021/08/07 09:59:16;;;;;;;1.27;1.00;;;;;;;32.45;31.93;99915.44;5012926;28;20016;-64
2021/08/07 10:01:41;;;;;;;3.33;0.93;;;;;;;32.46;32.29;99917.09;5012541;28;20037;-65
2021/08/07 10:04:11;;;;;;;1.65;1.10;;;;;;;32.46;32.05;99917.09;5012180;28;20645;-64
2021/08/07 10:06:36;;;;;;;3.00;1.00;;;;;;;32.36;31.58;99899.66;5012320;28;20518;-64
2021/08/07 10:09:03;;;;;;;1.30;0.80;;;;;;;32.43;32.02;99911.28;5010569;28;20069;-64
2021/08/07 10:11:29;;;;;;;3.17;1.00;;;;;;;32.43;31.84;99916.81;5012416;28;20468;-65
2021/08/07 10:13:55;;;;;;;2.85;1.30;;;;;;;32.41;31.77;99913.53;5011731;28;20032;-64
2021/08/07 10:16:21;;;;;;;0.82;0.82;;;;;;;32.40;31.44;99906.31;5012123;28;20049;-64
2021/08/07 10:18:48;;;;;;;2.03;1.15;;;;;;;32.40;31.43;99909.09;5012022;28;20096;-64
2021/08/07 10:21:13;;;;;;;5.10;0.90;;;;;;;32.38;31.61;99903.00;5012027;28;20029;-64
2021/08/07 10:23:39;;;;;;;1.27;1.00;;;;;;;32.39;31.44;99911.03;5012113;28;20032;-64
2021/08/07 10:26:09;;;;;;;1.60;1.23;;;;;;;32.38;31.66;99901.06;5011486;28;20085;-64
2021/08/07 10:28:41;;;;;;;3.97;1.00;;;;;;;32.39;31.45;99916.59;5009887;28;20132;-65
2021/08/07 10:31:11;;;;;;;1.15;1.05;;;;;;;32.36;30.86;99910.75;5011351;28;20065;-65
2021/08/07 10:33:42;;;;;;;1.25;1.00;;;;;;;32.37;30.88;99901.34;5011521;28;20033;-65
2021/08/07 10:36:08;;;;;;;0.75;0.68;;;;;;;32.35;30.79;99901.63;5009825;28;20564;-65
2021/08/07 10:38:36;;;;;;;0.90;0.80;;;;;;;32.35;30.93;99901.63;5011844;28;20026;-65
2021/08/07 10:41:02;;;;;;;1.33;0.93;;;;;;;32.38;31.09;99903.00;5026517;28;20025;-65
2021/08/07 10:43:32;;;;;;;2.28;1.40;;;;;;;32.36;31.00;99894.94;5011699;28;20029;-65
2021/08/07 10:45:58;;;;;;;4.45;1.00;;;;;;;32.31;30.92;99891.34;5026374;28;20025;-65
2021/08/07 10:48:44;;;;;;;1.33;0.93;;;;;;;32.32;30.95;99893.84;5011430;28;20030;-65
2021/08/07 10:51:19;;;;;;;1.42;0.90;;;;;;;32.30;30.69;99892.44;5011293;28;20061;-65
2021/08/07 10:53:46;;;;;;;1.52;0.88;;;;;;;32.32;30.59;99893.84;5011687;28;20053;-65
2021/08/07 10:56:31;;;;;;;1.20;1.10;;;;;;;32.30;30.26;99884.09;5011126;28;20036;-65
2021/08/07 10:59:12;;;;;;;1.38;1.05;;;;;;;32.37;30.59;99885.50;5009304;28;20029;-66
2021/08/07 11:01:39;;;;;;;1.63;0.75;;;;;;;32.33;30.66;99892.75;5026117;28;20022;-65
2021/08/07 11:04:15;;;;;;;1.80;1.02;;;;;;;32.29;30.38;99874.13;5010930;28;20039;-66
2021/08/07 11:06:40;;;;;;;1.45;1.10;;;;;;;32.30;30.67;99887.72;5011297;28;20037;-66
2021/08/07 11:09:18;;;;;;;1.65;1.08;;;;;;;32.30;30.69;99876.63;5010789;28;20103;-66
2021/08/07 11:11:44;;;;;;;3.35;1.02;;;;;;;32.31;30.73;99869.13;5011155;28;20062;-66
2021/08/07 11:14:25;;;;;;;2.22;1.23;;;;;;;32.36;31.02;99875.50;5009786;28;20017;-66
2021/08/07 11:17:05;;;;;;;1.33;0.90;;;;;;;32.37;31.28;99874.38;5010655;28;20030;-66
2021/08/07 11:19:50;;;;;;;1.73;0.95;;;;;;;32.37;31.01;99862.47;5025581;28;20050;-66
2021/08/07 11:22:48;;;;;;;2.33;1.42;;;;;;;32.34;30.99;99846.38;5011314;28;20025;-66
2021/08/07 11:25:14;;;;;;;1.10;1.00;;;;;;;32.38;31.19;99858.56;5010713;28;20045;-66
2021/08/07 11:27:46;;;;;;;1.48;1.10;;;;;;;32.40;31.09;99850.78;5010757;28;20030;-66
2021/08/07 11:30:20;;;;;;;2.80;1.00;;;;;;;32.39;30.91;99838.84;5010620;28;20606;-66
2021/08/07 11:32:58;;;;;;;1.30;1.20;;;;;;;32.40;30.52;99839.69;5011067;28;20073;-66
2021/08/07 11:35:37;;;;;;;1.92;0.95;;;;;;;32.35;30.62;99843.31;5010848;28;20033;-66